createdAt,value
2018-03-27T00:00:03.309Z,1015.68
2018-03-27T00:05:02.892Z,1015.67
2018-03-27T00:10:03.101Z,1015.61
2018-03-27T00:15:03.098Z,1015.6
2018-03-27T00:20:03.114Z,1015.6
2018-03-27T00:25:03.139Z,1015.66
2018-03-27T00:30:03.099Z,1015.54
2018-03-27T00:35:03.210Z,1015.49
2018-03-27T00:40:03.242Z,1015.55
2018-03-27T00:45:03.220Z,1015.51
2018-03-27T00:50:03.359Z,1015.5
2018-03-27T00:55:03.282Z,1015.49
2018-03-27T01:00:03.294Z,1015.41
2018-03-27T01:05:03.225Z,1015.33
2018-03-27T01:10:03.319Z,1015.29
2018-03-27T01:15:03.319Z,1015.25
2018-03-27T01:20:03.372Z,1015.21
2018-03-27T01:25:03.344Z,1015.26
2018-03-27T01:30:03.257Z,1015.34
2018-03-27T01:35:03.293Z,1015.31
2018-03-27T01:40:03.344Z,1015.28
2018-03-27T01:45:03.342Z,1015.23
2018-03-27T01:50:03.318Z,1015.2
2018-03-27T01:55:03.328Z,1015.14
2018-03-27T02:00:03.350Z,1015.03
2018-03-27T02:05:03.362Z,1015.06
2018-03-27T02:10:03.362Z,1014.99
2018-03-27T02:15:03.298Z,1015
2018-03-27T02:20:03.333Z,1014.89
2018-03-27T02:25:03.211Z,1014.79
2018-03-27T02:30:03.244Z,1014.73
2018-03-27T02:35:03.212Z,1014.79
2018-03-27T02:40:03.197Z,1014.75
2018-03-27T02:45:03.099Z,1014.77
2018-03-27T02:50:02.968Z,1014.74
2018-03-27T02:55:02.906Z,1014.74
2018-03-27T03:00:03.120Z,1014.76
2018-03-27T03:05:03.348Z,1014.74
2018-03-27T03:10:03.450Z,1014.79
2018-03-27T03:15:03.439Z,1014.7
2018-03-27T03:20:03.645Z,1014.69
2018-03-27T03:25:03.701Z,1014.69
2018-03-27T03:30:03.686Z,1014.61
2018-03-27T03:35:03.642Z,1014.68
2018-03-27T03:40:03.710Z,1014.65
2018-03-27T03:45:03.688Z,1014.6
2018-03-27T03:50:02.712Z,1014.54
2018-03-27T03:55:03.666Z,1014.55
2018-03-27T04:00:03.812Z,1014.48
2018-03-27T04:05:02.793Z,1014.4
2018-03-27T04:10:02.776Z,1014.49
2018-03-27T04:15:02.811Z,1014.39
2018-03-27T04:20:02.901Z,1014.46
2018-03-27T04:25:02.892Z,1014.32
2018-03-27T04:30:03.355Z,1014.3
2018-03-27T04:35:03.407Z,1014.23
2018-03-27T04:40:03.406Z,1014.17
2018-03-27T04:45:03.381Z,1014.13
2018-03-27T04:50:03.390Z,1014.07
2018-03-27T04:55:03.342Z,1014.01
2018-03-27T05:00:03.299Z,1014.07
2018-03-27T05:05:03.308Z,1014.03
2018-03-27T05:10:03.345Z,1013.96
2018-03-27T05:15:03.353Z,1014.07
2018-03-27T05:20:03.336Z,1014.07
2018-03-27T05:25:03.253Z,1013.96
2018-03-27T05:30:03.228Z,1013.98
2018-03-27T05:35:03.218Z,1014.02
2018-03-27T05:40:03.256Z,1013.92
2018-03-27T05:45:03.199Z,1013.93
2018-03-27T05:50:03.251Z,1013.93
2018-03-27T05:55:03.283Z,1013.9
2018-03-27T06:00:03.594Z,1013.88
2018-03-27T06:05:03.933Z,1013.87
2018-03-27T06:10:03.086Z,1013.88
2018-03-27T06:15:03.030Z,1013.84
2018-03-27T06:20:03.045Z,1013.78
2018-03-27T06:25:03.006Z,1013.79
2018-03-27T06:30:03.006Z,1013.68
2018-03-27T06:35:02.989Z,1013.59
2018-03-27T06:40:03.008Z,1013.62
2018-03-27T06:45:03.016Z,1013.59
2018-03-27T06:50:03.103Z,1013.61
2018-03-27T06:55:03.112Z,1013.61
2018-03-27T07:00:03.403Z,1013.44
2018-03-27T07:05:03.600Z,1013.43
2018-03-27T07:10:02.816Z,1013.47
2018-03-27T07:15:02.940Z,1013.38
2018-03-27T07:20:02.964Z,1013.33
2018-03-27T07:25:02.924Z,1013.34
2018-03-27T07:30:03.075Z,1013.26
2018-03-27T07:35:03.121Z,1013.15
2018-03-27T07:40:03.184Z,1013.11
2018-03-27T07:45:03.094Z,1013.04
2018-03-27T07:50:03.255Z,1013.06
2018-03-27T07:55:03.209Z,1012.98
2018-03-27T08:00:03.128Z,1012.88
2018-03-27T08:05:03.127Z,1012.76
2018-03-27T08:10:03.133Z,1012.69
2018-03-27T08:15:03.292Z,1012.66
2018-03-27T08:20:03.580Z,1012.53
2018-03-27T08:25:03.651Z,1012.53
2018-03-27T08:30:03.561Z,1012.47
2018-03-27T08:35:03.596Z,1012.35
2018-03-27T08:40:03.632Z,1012.28
2018-03-27T08:45:03.624Z,1012.18
2018-03-27T08:50:03.702Z,1012.23
2018-03-27T08:55:03.646Z,1012.19
2018-03-27T09:00:03.650Z,1012.13
2018-03-27T09:05:03.643Z,1012.06
2018-03-27T09:10:03.715Z,1012.03
2018-03-27T09:15:03.680Z,1011.94
2018-03-27T09:20:03.672Z,1011.88
2018-03-27T09:25:03.701Z,1011.89
2018-03-27T09:30:03.694Z,1011.85
2018-03-27T09:35:02.715Z,1011.75
2018-03-27T09:40:02.747Z,1011.72
2018-03-27T09:45:02.803Z,1011.65
2018-03-27T09:50:02.818Z,1011.66
2018-03-27T09:55:02.743Z,1011.51
2018-03-27T10:00:02.788Z,1011.44
2018-03-27T10:05:02.871Z,1011.35
2018-03-27T10:10:02.936Z,1011.37
2018-03-27T10:15:03.038Z,1011.29
2018-03-27T10:20:02.998Z,1011.24
2018-03-27T10:25:03.014Z,1011.1
2018-03-27T10:30:03.034Z,1011.05
2018-03-27T10:35:03.028Z,1010.95
2018-03-27T10:40:03.137Z,1010.86
2018-03-27T10:45:03.108Z,1010.77
2018-03-27T10:50:03.199Z,1010.61
2018-03-27T10:55:03.207Z,1010.62
2018-03-27T11:00:03.277Z,1010.57
2018-03-27T11:05:03.333Z,1010.51
2018-03-27T11:10:03.706Z,1010.4
2018-03-27T11:15:02.751Z,1010.43
2018-03-27T11:20:02.817Z,1010.41
2018-03-27T11:25:02.754Z,1010.38
2018-03-27T11:30:02.822Z,1010.24
2018-03-27T11:35:02.974Z,1010.27
2018-03-27T11:40:03.022Z,1010.06
2018-03-27T11:45:03.069Z,1009.9
2018-03-27T11:50:03.024Z,1009.81
2018-03-27T11:55:03.147Z,1009.71
2018-03-27T12:00:03.068Z,1009.61
2018-03-27T12:05:03.006Z,1009.54
2018-03-27T12:10:03.005Z,1009.4
2018-03-27T12:15:02.928Z,1009.41
2018-03-27T12:20:03.103Z,1009.44
2018-03-27T12:25:03.019Z,1009.36
2018-03-27T12:30:02.982Z,1009.3
2018-03-27T12:35:03.016Z,1009.19
2018-03-27T12:40:02.773Z,1009.1
2018-03-27T12:45:03.322Z,1008.98
2018-03-27T12:50:03.022Z,1008.84
2018-03-27T12:55:03.588Z,1008.74
2018-03-27T13:00:03.130Z,1008.69
2018-03-27T13:05:02.791Z,1008.64
2018-03-27T13:10:03.583Z,1008.67
2018-03-27T13:15:03.156Z,1008.55
2018-03-27T13:20:02.924Z,1008.5
2018-03-27T13:25:03.574Z,1008.41
2018-03-27T13:30:03.242Z,1008.38
2018-03-27T13:35:02.759Z,1008.26
2018-03-27T13:40:03.368Z,1008.2
2018-03-27T13:45:03.004Z,1008.33
2018-03-27T13:50:03.601Z,1008.09
2018-03-27T13:55:03.138Z,1008.05
2018-03-27T14:00:03.640Z,1008.06
2018-03-27T14:05:03.235Z,1007.93
2018-03-27T14:10:02.852Z,1007.85
2018-03-27T14:15:03.733Z,1007.76
2018-03-27T14:20:03.394Z,1007.75
2018-03-27T14:25:02.986Z,1007.57
2018-03-27T14:30:03.652Z,1007.58
2018-03-27T14:35:03.480Z,1007.6
2018-03-27T14:40:03.098Z,1007.49
2018-03-27T14:45:03.591Z,1007.45
2018-03-27T14:50:03.201Z,1007.4
2018-03-27T14:55:02.879Z,1007.36
2018-03-27T15:00:03.513Z,1007.28
2018-03-27T15:05:03.211Z,1007.17
2018-03-27T15:10:02.911Z,1007
2018-03-27T15:15:03.599Z,1007.1
2018-03-27T15:20:03.119Z,1006.99
2018-03-27T15:25:03.692Z,1006.79
2018-03-27T15:30:03.256Z,1006.81
2018-03-27T15:35:03.037Z,1006.75
2018-03-27T15:40:03.629Z,1006.78
2018-03-27T15:45:03.134Z,1006.64
2018-03-27T15:50:02.751Z,1006.57
2018-03-27T15:55:03.289Z,1006.54
2018-03-27T16:00:02.943Z,1006.39
2018-03-27T16:05:03.622Z,1006.36
2018-03-27T16:10:03.202Z,1006.33
2018-03-27T16:15:02.739Z,1006.26
2018-03-27T16:20:03.391Z,1006.26
2018-03-27T16:25:03.029Z,1006.16
2018-03-27T16:30:03.606Z,1006.16
2018-03-27T16:35:03.187Z,1006.09
2018-03-27T16:40:02.818Z,1006.08
2018-03-27T16:45:03.356Z,1006.09
2018-03-27T16:50:02.988Z,1006.07
2018-03-27T16:55:03.615Z,1005.99
2018-03-27T17:00:03.216Z,1005.98
2018-03-27T17:05:02.812Z,1005.93
2018-03-27T17:10:03.456Z,1005.88
2018-03-27T17:15:03.013Z,1005.82
2018-03-27T17:20:03.656Z,1005.74
2018-03-27T17:25:03.244Z,1005.73
2018-03-27T17:30:02.859Z,1005.69
2018-03-27T17:35:03.422Z,1005.65
2018-03-27T17:40:03.017Z,1005.64
2018-03-27T17:45:03.599Z,1005.58
2018-03-27T17:50:03.197Z,1005.55
2018-03-27T17:55:02.746Z,1005.59
2018-03-27T18:00:03.352Z,1005.62
2018-03-27T18:05:03.037Z,1005.58
2018-03-27T18:10:03.666Z,1005.67
2018-03-27T18:15:03.260Z,1005.75
2018-03-27T18:20:02.917Z,1005.64
2018-03-27T18:25:03.550Z,1005.55
2018-03-27T18:30:03.154Z,1005.51
2018-03-27T18:35:02.773Z,1005.44
2018-03-27T18:40:03.450Z,1005.5
2018-03-27T18:45:03.037Z,1005.4
2018-03-27T18:50:03.604Z,1005.3
2018-03-27T18:55:03.151Z,1005.25
2018-03-27T19:00:02.813Z,1005.28
2018-03-27T19:05:03.403Z,1005.25
2018-03-27T19:10:03.093Z,1005.25
2018-03-27T19:15:03.616Z,1005.25
2018-03-27T19:20:03.327Z,1005.19
2018-03-27T19:25:02.884Z,1005.14
2018-03-27T19:30:03.511Z,1005.05
2018-03-27T19:35:03.144Z,1005.04
2018-03-27T19:40:02.757Z,1004.94
2018-03-27T19:45:03.374Z,1004.86
2018-03-27T19:50:02.925Z,1004.75
2018-03-27T19:55:03.572Z,1004.73
2018-03-27T20:00:03.449Z,1004.74
2018-03-27T20:05:03.061Z,1004.73
2018-03-27T20:10:02.745Z,1004.65
2018-03-27T20:15:03.414Z,1004.56
2018-03-27T20:20:03.054Z,1004.43
2018-03-27T20:25:03.644Z,1004.41
2018-03-27T20:30:03.272Z,1004.39
2018-03-27T20:35:02.960Z,1004.31
2018-03-27T20:40:03.552Z,1004.21
2018-03-27T20:45:03.050Z,1004.24
2018-03-27T20:50:03.670Z,1004.13
2018-03-27T20:55:03.282Z,1004.07
2018-03-27T21:00:02.847Z,1004.02
2018-03-27T21:05:03.451Z,1004.1
2018-03-27T21:10:03.093Z,1004.11
2018-03-27T21:15:03.660Z,1004.11
2018-03-27T21:20:03.340Z,1003.99
2018-03-27T21:25:02.934Z,1004.04
2018-03-27T21:30:03.534Z,1004.02
2018-03-27T21:35:03.195Z,1004.02
2018-03-27T21:40:02.906Z,1004.06
2018-03-27T21:45:03.487Z,1004.08
2018-03-27T21:50:02.978Z,1004.04
2018-03-27T21:55:03.572Z,1004.07
2018-03-27T22:00:03.187Z,1004
2018-03-27T22:05:02.765Z,1004
2018-03-27T22:10:03.424Z,1003.86
2018-03-27T22:15:03.032Z,1003.89
2018-03-27T22:20:02.793Z,1003.94
2018-03-27T22:25:03.383Z,1003.89
2018-03-27T22:30:02.917Z,1003.92
2018-03-27T22:35:03.531Z,1003.89
2018-03-27T22:40:03.254Z,1003.85
2018-03-27T22:45:02.787Z,1003.79
2018-03-27T22:50:03.455Z,1003.73
2018-03-27T22:55:03.131Z,1003.72
2018-03-27T23:00:05.489Z,1003.77
2018-03-27T23:05:03.345Z,1003.78
2018-03-27T23:10:02.984Z,1003.72
2018-03-27T23:15:03.659Z,1003.75
2018-03-27T23:20:03.351Z,1003.69
2018-03-27T23:25:02.888Z,1003.74
2018-03-27T23:30:03.458Z,1003.82
2018-03-27T23:35:03.095Z,1003.83
2018-03-27T23:40:03.719Z,1003.91
2018-03-27T23:45:03.337Z,1003.92
2018-03-27T23:50:02.985Z,1003.89
2018-03-27T23:55:03.542Z,1003.92
